Time;durP1;ratioP1;P1;durP2;ratioP2;P2;SDS_P1;SDS_P2;PMS_P1;PMS_P2;Temp;Humidity;BMP_temperature;BMP_pressure;BME280_temperature;BME280_humidity;BME280_pressure;Samples;Min_cycle;Max_cycle;Signal;HPM_P1;HPM_P2
2023/04/14 00:01:28;;;;;;;4.28;1.70;;;;;;;6.43;41.27;99654.22;5075157;28;20566;-56
2023/04/14 00:03:54;;;;;;;6.80;1.77;;;;;;;6.35;41.18;99667.25;5076108;28;20116;-57
2023/04/14 00:06:20;;;;;;;5.68;2.10;;;;;;;6.30;41.18;99656.16;5064705;28;20051;-58
2023/04/14 00:08:46;;;;;;;4.80;1.98;;;;;;;6.14;41.47;99653.88;5079220;28;20480;-56
2023/04/14 00:11:12;;;;;;;3.35;2.20;;;;;;;6.14;41.10;99664.19;5067112;28;20143;-53
2023/04/14 00:13:38;;;;;;;4.07;1.80;;;;;;;6.10;41.45;99670.28;5071189;28;20128;-53
2023/04/14 00:16:05;;;;;;;3.60;1.90;;;;;;;6.06;41.34;99684.13;5102174;28;20044;-52
2023/04/14 00:18:30;;;;;;;3.25;1.65;;;;;;;5.94;41.46;99674.84;5068049;28;20098;-57
2023/04/14 00:20:56;;;;;;;3.35;2.00;;;;;;;5.95;41.80;99692.88;5068077;28;20048;-55
2023/04/14 00:23:22;;;;;;;3.50;1.98;;;;;;;5.90;41.78;99693.84;5067789;28;20054;-53
2023/04/14 00:25:48;;;;;;;2.15;1.65;;;;;;;5.90;42.16;99699.00;5068164;28;20059;-54
2023/04/14 00:28:14;;;;;;;3.08;1.92;;;;;;;5.83;41.87;99708.50;5080067;28;20134;-59
2023/04/14 00:30:40;;;;;;;6.00;2.20;;;;;;;5.77;41.48;99705.16;5103810;28;20470;-55
2023/04/14 00:33:06;;;;;;;2.30;1.75;;;;;;;5.72;42.40;99719.84;5086791;28;20431;-55
2023/04/14 00:35:32;;;;;;;4.95;2.25;;;;;;;5.38;42.22;99653.31;5086849;28;20062;-56
2023/04/14 00:37:57;;;;;;;6.50;2.25;;;;;;;5.68;42.23;99715.63;5084999;28;20408;-55
2023/04/14 00:40:23;;;;;;;8.43;2.75;;;;;;;5.57;42.00;99702.00;5091981;28;20097;-59
2023/04/14 00:42:49;;;;;;;10.95;2.67;;;;;;;5.57;42.12;99726.09;5082730;28;20037;-55
2023/04/14 00:45:15;;;;;;;5.82;1.77;;;;;;;5.50;42.03;99722.72;5076938;28;20064;-58
2023/04/14 00:47:45;;;;;;;4.93;1.90;;;;;;;5.47;42.63;99724.50;5085320;28;20046;-56
2023/04/14 00:50:16;;;;;;;6.82;2.35;;;;;;;5.15;42.58;99667.34;5035622;28;20047;-56
2023/04/14 00:52:43;;;;;;;6.50;2.63;;;;;;;5.40;42.24;99734.03;5071696;28;20044;-55
2023/04/14 00:55:09;;;;;;;10.07;2.22;;;;;;;5.23;42.45;99707.63;5102301;28;20089;-54
2023/04/14 00:57:35;;;;;;;3.13;1.73;;;;;;;5.13;42.48;99701.72;5086010;28;20047;-51
2023/04/14 01:00:04;;;;;;;4.07;2.10;;;;;;;5.14;42.62;99705.16;5084418;28;20032;-57
2023/04/14 01:02:30;;;;;;;6.45;2.25;;;;;;;5.04;42.50;99690.66;5082874;28;20404;-57
2023/04/14 01:04:56;;;;;;;4.97;1.98;;;;;;;5.22;42.26;99733.41;5075890;28;20436;-55
2023/04/14 01:07:24;;;;;;;15.25;2.33;;;;;;;5.05;42.66;99693.25;5064543;28;20127;-51
2023/04/14 01:09:51;;;;;;;3.40;2.10;;;;;;;5.17;42.49;99725.75;5078673;28;20095;-57
2023/04/14 01:12:19;;;;;;;5.13;2.20;;;;;;;5.16;42.34;99731.75;5082166;28;20440;-55
2023/04/14 01:15:23;;;;;;;5.55;2.13;;;;;;;5.18;42.47;99730.03;5094172;27;20071;-55
2023/04/14 01:18:14;;;;;;;5.00;2.20;;;;;;;5.13;42.27;99739.50;5069790;28;20139;-53
2023/04/14 01:20:43;;;;;;;3.78;2.58;;;;;;;5.12;42.77;99745.56;5087135;28;20047;-56
2023/04/14 01:23:13;;;;;;;3.63;2.47;;;;;;;5.13;42.81;99731.78;5054420;28;20051;-56
2023/04/14 01:26:09;;;;;;;6.10;2.30;;;;;;;5.13;42.50;99738.69;5074008;28;20112;-52
2023/04/14 01:29:03;;;;;;;4.93;2.35;;;;;;;5.13;42.24;99750.69;5087723;28;20499;-57
2023/04/14 01:31:49;;;;;;;6.28;2.42;;;;;;;5.12;42.47;99750.72;5066893;28;20044;-55
2023/04/14 01:34:27;;;;;;;4.63;2.30;;;;;;;4.92;42.54;99730.31;5050209;28;20305;-58
2023/04/14 01:37:04;;;;;;;3.40;2.40;;;;;;;5.05;42.32;99759.38;5067203;28;20066;-55
2023/04/14 01:39:37;;;;;;;2.97;2.05;;;;;;;4.82;42.92;99722.69;5068825;28;20047;-55
2023/04/14 01:42:06;;;;;;;6.10;2.67;;;;;;;4.79;42.59;99726.16;5052881;28;20036;-56
2023/04/14 01:44:34;;;;;;;3.83;2.28;;;;;;;4.62;42.81;99705.72;5072193;28;20051;-57
2023/04/14 01:47:05;;;;;;;3.67;2.63;;;;;;;5.01;42.96;99775.75;5072790;28;20040;-54
2023/04/14 01:49:32;;;;;;;6.07;2.67;;;;;;;5.05;42.71;99772.25;5089971;28;20192;-50
2023/04/14 01:52:00;;;;;;;6.97;2.80;;;;;;;5.06;42.39;99771.41;5089879;28;20535;-56
2023/04/14 01:54:28;;;;;;;3.83;2.45;;;;;;;5.07;42.22;99773.09;5073241;28;20047;-55
2023/04/14 01:56:56;;;;;;;4.93;2.13;;;;;;;5.02;42.44;99775.69;5072729;28;20032;-51
2023/04/14 01:59:23;;;;;;;6.28;3.10;;;;;;;4.96;42.21;99775.78;5088125;28;20051;-56
2023/04/14 02:01:50;;;;;;;4.43;2.25;;;;;;;4.93;42.45;99770.66;5089436;28;20109;-57
2023/04/14 02:04:21;;;;;;;6.07;2.75;;;;;;;4.88;42.17;99775.00;5088441;28;20044;-56
2023/04/14 02:06:48;;;;;;;5.25;2.72;;;;;;;4.89;42.49;99769.00;5088543;28;20093;-54
2023/04/14 02:09:14;;;;;;;4.57;2.50;;;;;;;4.93;42.67;99777.53;5072687;28;20078;-56
2023/04/14 02:11:42;;;;;;;3.60;2.47;;;;;;;4.66;42.73;99746.03;5087485;28;20097;-54
2023/04/14 02:14:08;;;;;;;5.43;2.40;;;;;;;4.79;42.50;99787.13;5068082;28;20039;-56
2023/04/14 02:16:34;;;;;;;6.47;2.70;;;;;;;4.75;42.82;99799.19;5084833;28;20566;-57
2023/04/14 02:19:01;;;;;;;2.80;1.92;;;;;;;4.74;42.95;99782.00;5086108;28;20043;-58
2023/04/14 02:21:29;;;;;;;6.20;2.83;;;;;;;4.78;42.66;99793.13;5085392;28;20048;-53
2023/04/14 02:23:55;;;;;;;3.47;2.00;;;;;;;4.74;42.60;99782.00;5067362;28;20413;-56
2023/04/14 02:26:23;;;;;;;6.88;2.30;;;;;;;4.73;42.99;99795.75;5057394;28;20047;-54
2023/04/14 02:29:04;;;;;;;5.57;2.60;;;;;;;4.68;43.08;99802.66;5072570;28;20055;-55
2023/04/14 02:31:31;;;;;;;7.55;2.40;;;;;;;4.39;43.14;99773.75;5057051;28;20045;-55
2023/04/14 02:33:58;;;;;;;6.72;2.33;;;;;;;4.57;43.13;99810.47;5068799;28;20380;-55
2023/04/14 02:36:34;;;;;;;6.65;2.42;;;;;;;4.26;43.30;99765.25;5068696;28;20062;-54
2023/04/14 02:39:09;;;;;;;4.53;2.58;;;;;;;4.49;42.91;99820.00;5105786;27;20047;-54
2023/04/14 02:41:36;;;;;;;3.58;2.28;;;;;;;4.46;43.05;99819.16;5102388;28;20031;-58
2023/04/14 02:44:08;;;;;;;6.10;2.83;;;;;;;4.43;43.46;99817.47;5079126;28;20069;-57
2023/04/14 02:46:40;;;;;;;4.28;2.45;;;;;;;4.36;43.18;99823.50;5088652;28;20815;-53
2023/04/14 02:49:07;;;;;;;9.85;2.15;;;;;;;4.32;42.91;99829.56;5087212;28;20040;-57
2023/04/14 02:51:35;;;;;;;7.50;2.13;;;;;;;4.34;43.46;99829.56;5087313;28;20127;-52
2023/04/14 02:54:03;;;;;;;6.03;2.33;;;;;;;4.29;43.42;99829.59;5084930;28;20044;-55
2023/04/14 02:56:39;;;;;;;2.90;2.28;;;;;;;4.08;43.04;99804.00;5071957;28;20043;-58
2023/04/14 02:59:06;;;;;;;5.45;2.20;;;;;;;3.93;43.49;99798.91;5067669;28;20033;-58
2023/04/14 03:01:33;;;;;;;6.75;2.22;;;;;;;4.20;43.30;99840.78;5079952;28;20523;-56
2023/04/14 03:04:00;;;;;;;3.38;1.90;;;;;;;4.20;43.50;99847.63;5069646;28;20557;-57
2023/04/14 03:06:28;;;;;;;6.57;2.78;;;;;;;4.15;43.56;99851.97;5086880;28;20511;-55
2023/04/14 03:08:56;;;;;;;4.15;2.13;;;;;;;4.14;43.38;99856.25;5074823;28;20044;-56
2023/04/14 03:11:24;;;;;;;3.20;1.90;;;;;;;3.99;43.52;99817.75;5064899;28;20077;-55
2023/04/14 03:13:53;;;;;;;6.25;2.22;;;;;;;4.09;43.48;99852.84;5065407;28;20055;-58
2023/04/14 03:16:20;;;;;;;3.88;2.35;;;;;;;3.89;43.49;99834.09;5097162;28;20131;-54
2023/04/14 03:18:48;;;;;;;7.82;2.20;;;;;;;3.75;43.75;99808.47;5082457;28;20453;-56
2023/04/14 03:21:17;;;;;;;5.65;2.00;;;;;;;4.06;43.37;99852.03;5086635;28;20127;-55
2023/04/14 03:23:44;;;;;;;7.30;2.05;;;;;;;4.15;43.54;99850.25;5087515;28;20094;-57
2023/04/14 03:26:17;;;;;;;5.90;2.10;;;;;;;4.15;43.37;99854.53;5069341;28;20191;-56
2023/04/14 03:28:46;;;;;;;4.53;2.00;;;;;;;4.20;43.51;99865.66;5082549;28;20045;-57
2023/04/14 03:31:15;;;;;;;3.83;1.83;;;;;;;4.19;43.21;99866.50;5086989;28;20054;-53
2023/04/14 03:33:54;;;;;;;4.35;2.00;;;;;;;4.20;43.15;99884.53;5085332;28;20088;-54
2023/04/14 03:36:21;;;;;;;7.03;1.92;;;;;;;4.17;43.25;99873.41;5070221;28;20404;-56
2023/04/14 03:38:48;;;;;;;3.45;1.70;;;;;;;4.21;43.17;99878.53;5070335;28;20040;-54
2023/04/14 03:41:17;;;;;;;8.32;2.03;;;;;;;4.30;42.83;99876.75;5088436;28;20044;-56
2023/04/14 03:43:44;;;;;;;4.93;1.80;;;;;;;4.25;42.91;99851.03;5066836;28;20091;-54
2023/04/14 03:46:13;;;;;;;9.02;2.22;;;;;;;4.49;42.91;99874.06;5069251;28;20135;-59
2023/04/14 03:48:43;;;;;;;8.15;2.38;;;;;;;4.52;42.81;99876.59;5036852;28;20054;-56
2023/04/14 03:51:13;;;;;;;6.38;2.03;;;;;;;4.56;42.57;99880.00;5086099;28;20101;-52
2023/04/14 03:53:41;;;;;;;2.72;1.90;;;;;;;4.59;42.41;99872.28;5085714;28;20036;-54
2023/04/14 03:56:12;;;;;;;2.70;2.10;;;;;;;4.45;42.46;99841.47;5069696;28;20035;-56
2023/04/14 03:58:38;;;;;;;8.98;2.10;;;;;;;4.45;42.15;99845.78;5070642;28;20105;-56
2023/04/14 04:01:05;;;;;;;4.85;1.90;;;;;;;4.61;42.23;99879.09;5068054;28;20036;-57
2023/04/14 04:03:33;;;;;;;5.70;2.00;;;;;;;4.62;41.98;99877.38;5086568;28;20059;-55
2023/04/14 04:05:59;;;;;;;3.22;1.65;;;;;;;4.59;42.27;99885.16;5069726;28;20047;-55
2023/04/14 04:08:26;;;;;;;7.43;1.90;;;;;;;4.55;42.42;99884.28;5068883;28;20040;-54
2023/04/14 04:10:52;;;;;;;3.90;2.08;;;;;;;4.46;42.21;99886.06;5085786;28;20040;-57
2023/04/14 04:13:19;;;;;;;2.65;1.60;;;;;;;4.37;42.30;99897.28;5050845;28;20072;-56
2023/04/14 04:15:49;;;;;;;3.85;2.05;;;;;;;4.30;42.25;99882.75;5080811;28;20043;-58
2023/04/14 04:18:16;;;;;;;5.55;1.90;;;;;;;4.24;42.48;99896.50;5086466;28;20507;-57
2023/04/14 04:20:43;;;;;;;3.58;1.85;;;;;;;4.19;42.71;99907.69;5069477;28;20550;-52
2023/04/14 04:23:10;;;;;;;10.82;2.60;;;;;;;4.21;42.61;99904.25;5068983;28;20423;-57
2023/04/14 04:25:37;;;;;;;4.57;1.90;;;;;;;4.28;42.68;99896.50;5086349;28;20569;-53
2023/04/14 04:28:26;;;;;;;3.92;1.88;;;;;;;4.19;42.80;99882.81;5070621;28;20151;-57
2023/04/14 04:30:54;;;;;;;2.95;1.50;;;;;;;4.36;42.63;99895.59;5080588;28;20109;-60
2023/04/14 04:33:20;;;;;;;6.50;1.40;;;;;;;4.37;42.43;99910.16;5080392;28;20080;-53
2023/04/14 04:35:46;;;;;;;2.45;1.50;;;;;;;4.38;42.21;99896.44;5087176;28;20067;-54
2023/04/14 04:38:13;;;;;;;4.63;1.88;;;;;;;4.31;42.29;99884.47;5078874;28;20122;-54
2023/04/14 04:40:42;;;;;;;3.25;1.80;;;;;;;4.42;42.08;99907.56;5086416;28;20089;-60
2023/04/14 04:43:18;;;;;;;6.97;1.60;;;;;;;4.46;41.83;99904.09;5084051;28;20135;-58
2023/04/14 04:46:06;;;;;;;3.35;1.73;;;;;;;4.52;41.71;99901.50;5053096;28;20354;-56
2023/04/14 04:48:34;;;;;;;3.28;1.70;;;;;;;4.48;41.62;99907.53;5084868;28;20052;-58
2023/04/14 04:51:00;;;;;;;2.25;1.52;;;;;;;4.51;41.50;99904.91;5082302;28;20044;-55
2023/04/14 04:53:25;;;;;;;7.53;2.20;;;;;;;4.58;41.48;99904.03;5076947;28;20534;-56
2023/04/14 04:55:52;;;;;;;2.85;1.58;;;;;;;4.66;41.18;99915.13;5090911;28;20055;-60
2023/04/14 04:58:17;;;;;;;10.20;1.63;;;;;;;4.69;40.83;99908.25;5089330;28;20072;-58
2023/04/14 05:00:43;;;;;;;8.88;1.50;;;;;;;4.73;40.55;99915.94;5091285;28;20070;-60
2023/04/14 05:03:09;;;;;;;7.78;2.28;;;;;;;4.70;40.48;99909.09;5082492;28;20055;-60
2023/04/14 05:05:36;;;;;;;5.82;1.48;;;;;;;4.80;40.22;99915.03;5090478;28;20418;-60
2023/04/14 05:08:02;;;;;;;8.68;1.75;;;;;;;4.80;40.19;99910.75;5089649;28;20048;-60
2023/04/14 05:10:28;;;;;;;5.53;1.73;;;;;;;4.73;40.21;99900.47;5088953;28;20507;-59
2023/04/14 05:12:54;;;;;;;5.00;1.60;;;;;;;4.92;40.04;99915.78;5085419;28;20043;-52
2023/04/14 05:15:20;;;;;;;6.13;1.75;;;;;;;5.15;40.02;99922.47;5090226;28;20050;-56
2023/04/14 05:17:46;;;;;;;4.80;1.42;;;;;;;5.21;39.58;99922.44;5087656;28;20047;-51
2023/04/14 05:20:12;;;;;;;2.33;1.40;;;;;;;5.22;39.82;99917.28;5091657;28;20051;-53
2023/04/14 05:22:38;;;;;;;3.53;1.63;;;;;;;5.26;39.23;99918.94;5091762;28;20050;-61
2023/04/14 05:25:04;;;;;;;2.42;1.40;;;;;;;5.15;39.24;99876.09;5089099;28;20135;-64
2023/04/14 05:27:30;;;;;;;3.35;1.17;;;;;;;5.49;39.26;99923.88;5089542;28;20067;-60
2023/04/14 05:29:56;;;;;;;6.13;1.42;;;;;;;5.43;38.68;99900.75;5076650;28;20120;-55
2023/04/14 05:32:22;;;;;;;4.95;1.48;;;;;;;5.55;38.83;99916.91;5090722;28;20557;-51
2023/04/14 05:34:48;;;;;;;6.68;1.75;;;;;;;5.80;38.33;99921.84;5091631;28;20044;-51
2023/04/14 05:37:14;;;;;;;44.78;3.55;;;;;;;5.87;38.44;99919.19;5078933;28;20036;-56
2023/04/14 05:39:40;;;;;;;12.23;2.85;;;;;;;5.89;38.29;99919.19;5079815;28;20164;-53
2023/04/14 05:42:06;;;;;;;2.13;1.90;;;;;;;6.28;38.60;99926.41;5053241;28;20094;-55
2023/04/14 05:44:32;;;;;;;2.83;1.40;;;;;;;6.39;38.01;99905.59;5086669;28;20060;-50
2023/04/14 05:46:58;;;;;;;7.18;1.52;;;;;;;6.44;37.64;99927.06;5090144;28;20150;-53
2023/04/14 05:49:23;;;;;;;3.20;1.40;;;;;;;6.55;37.35;99921.75;5087419;28;20468;-54
2023/04/14 05:51:49;;;;;;;8.63;1.45;;;;;;;6.75;37.27;99928.31;5088888;28;20071;-51
2023/04/14 05:54:15;;;;;;;3.65;1.50;;;;;;;6.98;36.46;99929.72;5075115;28;20077;-53
2023/04/14 05:56:41;;;;;;;6.57;1.30;;;;;;;7.10;36.71;99937.28;5078591;28;20097;-53
2023/04/14 05:59:07;;;;;;;3.97;1.48;;;;;;;7.25;36.22;99934.44;5089548;28;20063;-51
2023/04/14 06:01:33;;;;;;;3.30;1.20;;;;;;;7.43;36.10;99907.41;5089552;28;20052;-51
2023/04/14 06:03:59;;;;;;;4.90;1.10;;;;;;;7.71;35.19;99933.59;5070661;28;20508;-51
2023/04/14 06:06:25;;;;;;;3.85;1.40;;;;;;;7.87;34.79;99922.09;5076475;28;20471;-52
2023/04/14 06:08:51;;;;;;;10.07;1.63;;;;;;;8.24;34.18;99919.59;5084462;28;20036;-55
2023/04/14 06:11:17;;;;;;;3.30;1.60;;;;;;;8.82;33.60;99917.47;5077408;28;20109;-54
2023/04/14 06:13:42;;;;;;;3.05;1.20;;;;;;;9.68;32.62;99935.16;5079289;28;20126;-52
2023/04/14 06:16:08;;;;;;;3.58;1.25;;;;;;;10.39;31.41;99927.13;5090779;28;20122;-51
2023/04/14 06:18:34;;;;;;;2.88;1.38;;;;;;;11.42;30.47;99935.97;5089511;28;20036;-54
2023/04/14 06:21:00;;;;;;;7.28;1.85;;;;;;;11.92;29.13;99902.16;5072481;28;20586;-54
2023/04/14 06:23:26;;;;;;;3.47;1.40;;;;;;;12.74;28.22;99932.00;5080209;28;20067;-52
2023/04/14 06:25:53;;;;;;;11.32;1.30;;;;;;;13.12;27.84;99927.91;5078483;28;20495;-52
2023/04/14 06:28:22;;;;;;;6.53;1.40;;;;;;;13.23;26.81;99937.06;5080342;28;20068;-52
2023/04/14 06:30:48;;;;;;;4.20;1.63;;;;;;;13.86;25.77;99931.72;5082690;28;20040;-50
2023/04/14 06:33:14;;;;;;;4.72;1.35;;;;;;;14.79;25.23;99912.63;5098741;28;20055;-53
2023/04/14 06:35:42;;;;;;;5.55;1.15;;;;;;;15.74;24.09;99927.13;5077141;28;20043;-51
2023/04/14 06:38:08;;;;;;;5.47;1.20;;;;;;;16.79;23.46;99924.94;5079184;28;20036;-52
2023/04/14 06:40:34;;;;;;;4.90;1.30;;;;;;;17.26;22.25;99924.88;5083766;28;20040;-51
2023/04/14 06:43:00;;;;;;;2.75;1.42;;;;;;;17.83;21.56;99950.47;5080898;28;20136;-62
2023/04/14 06:45:26;;;;;;;3.28;1.15;;;;;;;18.27;20.68;99935.44;5073888;28;20123;-63
2023/04/14 06:47:52;;;;;;;6.40;1.50;;;;;;;18.75;20.02;99926.28;5074662;28;20044;-64
2023/04/14 06:50:18;;;;;;;4.90;1.60;;;;;;;19.31;19.42;99941.03;5088808;28;20056;-63
2023/04/14 06:52:44;;;;;;;6.32;1.55;;;;;;;20.04;18.74;99930.81;5078422;28;20042;-64
2023/04/14 06:55:10;;;;;;;8.20;1.58;;;;;;;20.63;18.13;99923.97;5078657;28;20047;-65
2023/04/14 06:57:36;;;;;;;6.75;2.22;;;;;;;20.98;17.57;99945.22;5074419;28;20072;-64
2023/04/14 07:00:06;;;;;;;5.90;1.63;;;;;;;21.51;16.92;99951.03;5081731;28;20448;-63
2023/04/14 07:02:32;;;;;;;8.63;1.83;;;;;;;21.90;16.61;99944.47;5090820;28;20036;-65
2023/04/14 07:04:57;;;;;;;4.47;1.50;;;;;;;22.14;16.09;99945.25;5082612;28;20089;-65
2023/04/14 07:07:23;;;;;;;2.90;1.45;;;;;;;22.50;15.92;99956.59;5078932;28;20415;-66
2023/04/14 07:09:49;;;;;;;5.85;1.45;;;;;;;23.11;15.32;99952.53;5082039;28;20051;-64
2023/04/14 07:12:16;;;;;;;4.47;1.40;;;;;;;23.54;14.70;99947.19;5090064;27;20151;-65
2023/04/14 07:14:42;;;;;;;11.18;1.70;;;;;;;23.87;14.59;99965.56;5092997;27;20504;-63
2023/04/14 07:17:08;;;;;;;2.42;1.55;;;;;;;24.16;14.41;99964.91;5070327;28;20033;-65
2023/04/14 07:19:34;;;;;;;11.10;1.90;;;;;;;24.31;13.99;99956.47;5082400;28;20067;-65
2023/04/14 07:22:00;;;;;;;7.68;1.50;;;;;;;24.40;13.74;99955.69;5091414;28;20036;-65
2023/04/14 07:24:26;;;;;;;4.80;1.40;;;;;;;24.72;13.48;99968.81;5080664;28;20050;-62
2023/04/14 07:26:52;;;;;;;9.68;1.52;;;;;;;24.78;13.39;99960.28;5073271;28;20032;-62
2023/04/14 07:29:18;;;;;;;5.85;1.55;;;;;;;25.21;13.11;99956.47;5082227;28;20040;-64
2023/04/14 07:31:44;;;;;;;9.43;1.90;;;;;;;25.56;12.79;99943.47;5072565;28;20540;-62
2023/04/14 07:34:10;;;;;;;7.45;1.52;;;;;;;25.97;12.53;99955.56;5079158;28;20055;-65
2023/04/14 07:36:36;;;;;;;7.18;1.63;;;;;;;26.02;12.31;99955.13;5080407;28;20503;-64
2023/04/14 07:39:02;;;;;;;5.90;1.63;;;;;;;26.59;11.85;99966.63;5074807;28;20044;-64
2023/04/14 07:41:28;;;;;;;5.88;2.00;;;;;;;27.19;11.86;99975.84;5078055;28;20059;-66
2023/04/14 07:43:56;;;;;;;5.65;1.42;;;;;;;27.47;11.60;99966.75;5078406;28;20052;-64
2023/04/14 07:46:22;;;;;;;8.25;3.05;;;;;;;27.31;11.68;99977.28;5077647;28;20157;-64
2023/04/14 07:48:48;;;;;;;11.15;1.90;;;;;;;27.87;11.30;99970.78;5074755;28;20052;-63
2023/04/14 07:51:14;;;;;;;4.72;1.70;;;;;;;28.04;11.19;99969.91;5086666;28;20507;-66
2023/04/14 07:53:42;;;;;;;5.97;1.70;;;;;;;28.26;10.87;99957.88;5075215;28;20136;-63
2023/04/14 07:56:08;;;;;;;4.43;1.70;;;;;;;28.56;10.78;99958.19;5081106;28;20040;-64
2023/04/14 07:58:34;;;;;;;4.97;1.60;;;;;;;28.89;10.73;99955.66;5073998;28;20091;-63
2023/04/14 08:01:00;;;;;;;4.00;2.90;;;;;;;29.03;10.50;99953.16;5071787;28;20563;-64
2023/04/14 08:03:26;;;;;;;10.52;1.80;;;;;;;29.18;10.35;99947.16;5082336;28;20045;-63
2023/04/14 08:05:51;;;;;;;7.70;1.80;;;;;;;28.56;10.50;99957.34;5083344;28;20059;-63
2023/04/14 08:08:18;;;;;;;4.20;1.80;;;;;;;28.36;10.62;99956.75;5085371;28;20508;-64
2023/04/14 08:10:44;;;;;;;4.45;2.05;;;;;;;28.26;10.75;99944.50;5078483;28;20048;-63
2023/04/14 08:13:10;;;;;;;4.18;1.50;;;;;;;28.49;10.29;99942.91;5078681;28;20039;-64
2023/04/14 08:15:35;;;;;;;8.50;1.95;;;;;;;28.60;10.08;99918.53;5081467;28;20057;-63
2023/04/14 08:18:01;;;;;;;8.23;4.63;;;;;;;28.07;10.36;99903.56;5076598;28;20039;-66
2023/04/14 08:20:27;;;;;;;5.78;1.88;;;;;;;28.16;10.03;99940.06;5093214;28;20090;-66
2023/04/14 08:22:55;;;;;;;7.18;4.07;;;;;;;28.16;10.14;99948.09;5090952;27;20040;-66
2023/04/14 08:25:21;;;;;;;6.80;4.10;;;;;;;27.67;10.27;99919.38;5060186;28;20460;-65
2023/04/14 08:27:47;;;;;;;4.60;2.85;;;;;;;27.91;10.44;99945.41;5074496;28;20135;-64
2023/04/14 08:30:13;;;;;;;14.40;5.43;;;;;;;28.23;10.18;99938.44;5070908;28;20033;-63
2023/04/14 08:32:38;;;;;;;80.80;24.25;;;;;;;28.72;10.02;99937.81;5063026;28;20040;-63
2023/04/14 08:35:05;;;;;;;49.22;14.50;;;;;;;28.81;10.11;99948.41;5074455;28;20558;-65
2023/04/14 08:37:31;;;;;;;20.25;5.53;;;;;;;29.23;9.71;99926.06;5080167;28;20040;-64
2023/04/14 08:39:56;;;;;;;27.77;9.13;;;;;;;29.85;9.67;99940.66;5078737;28;20047;-65
2023/04/14 08:42:24;;;;;;;17.30;5.10;;;;;;;29.88;9.54;99929.59;5083197;28;20051;-65
2023/04/14 08:44:51;;;;;;;14.40;2.70;;;;;;;29.10;9.53;99920.38;5072854;28;20513;-66
2023/04/14 08:47:21;;;;;;;16.10;4.38;;;;;;;29.08;9.44;99911.66;5081619;28;20135;-65
2023/04/14 08:50:04;;;;;;;11.10;4.00;;;;;;;29.89;9.28;99932.13;5078288;28;20032;-67
2023/04/14 08:52:30;;;;;;;18.52;6.38;;;;;;;29.96;9.36;99916.19;5070740;28;20050;-64
2023/04/14 08:54:56;;;;;;;9.38;3.30;;;;;;;30.37;9.18;99913.38;5077465;28;20055;-66
2023/04/14 08:57:25;;;;;;;11.80;4.32;;;;;;;30.66;9.16;99940.47;5085672;28;20048;-65
2023/04/14 08:59:51;;;;;;;16.90;3.55;;;;;;;30.60;9.31;99938.47;5093269;28;20078;-65
2023/04/14 09:02:17;;;;;;;26.67;3.60;;;;;;;30.85;8.82;99942.72;5075840;28;20568;-66
2023/04/14 09:04:44;;;;;;;6.63;1.80;;;;;;;30.96;8.88;99942.31;5086637;28;20093;-65
2023/04/14 09:07:11;;;;;;;8.73;2.20;;;;;;;31.19;8.58;99954.97;5085062;28;20047;-67
2023/04/14 09:09:37;;;;;;;12.60;2.58;;;;;;;31.33;8.62;99954.19;5083339;28;20338;-64
2023/04/14 09:12:03;;;;;;;7.05;2.20;;;;;;;31.36;8.80;99945.75;5070556;28;20520;-64
2023/04/14 09:14:29;;;;;;;8.88;2.42;;;;;;;31.58;8.25;99941.41;5068760;28;20082;-62
2023/04/14 09:16:55;;;;;;;9.10;2.30;;;;;;;31.70;8.23;99953.41;5068701;28;20686;-64
2023/04/14 09:19:25;;;;;;;6.03;1.80;;;;;;;31.62;8.23;99940.84;5087092;28;20130;-66
2023/04/14 09:21:51;;;;;;;9.95;2.03;;;;;;;31.74;8.24;99947.47;5084977;28;20081;-64
2023/04/14 09:24:22;;;;;;;7.53;2.08;;;;;;;31.45;8.53;99947.38;5067958;28;20644;-64
2023/04/14 09:26:51;;;;;;;8.95;2.35;;;;;;;31.63;8.58;99960.50;5073353;28;20494;-64
2023/04/14 09:29:17;;;;;;;5.70;2.38;;;;;;;31.69;8.58;99955.25;5085961;28;20045;-65
2023/04/14 09:31:44;;;;;;;9.32;2.15;;;;;;;31.72;8.20;99946.81;5080782;28;20076;-66
2023/04/14 09:34:17;;;;;;;5.78;2.03;;;;;;;31.98;8.27;99943.69;5083946;28;20508;-65
2023/04/14 09:37:04;;;;;;;9.20;2.20;;;;;;;32.00;8.28;99920.16;5077965;28;20051;-64
2023/04/14 09:39:32;;;;;;;6.57;1.90;;;;;;;32.22;8.29;99956.09;5075669;28;20602;-65
2023/04/14 09:42:00;;;;;;;5.75;1.90;;;;;;;32.12;7.88;99959.06;5076343;28;20040;-64
2023/04/14 09:44:26;;;;;;;7.73;2.07;;;;;;;31.86;7.98;99955.94;5088542;28;20259;-65
2023/04/14 09:47:01;;;;;;;5.20;2.00;;;;;;;31.92;7.94;99957.91;5079438;28;20294;-63
2023/04/14 09:49:28;;;;;;;7.05;2.60;;;;;;;31.92;8.62;99952.53;5076301;28;20592;-67
2023/04/14 09:52:01;;;;;;;6.90;1.50;;;;;;;31.84;8.38;99939.16;5085380;28;20040;-64
2023/04/14 09:54:27;;;;;;;7.10;2.40;;;;;;;32.16;7.83;99962.22;5075085;28;20072;-64
2023/04/14 09:56:53;;;;;;;4.63;1.70;;;;;;;32.38;7.88;99972.06;5081559;28;20067;-64
2023/04/14 09:59:33;;;;;;;4.05;1.98;;;;;;;32.66;7.77;99973.09;5072603;28;20397;-64
2023/04/14 10:02:03;;;;;;;7.65;1.95;;;;;;;33.09;7.66;99982.09;5085890;28;20065;-64
2023/04/14 10:04:29;;;;;;;38.75;3.83;;;;;;;33.30;7.62;99958.91;5094745;28;20048;-65
2023/04/14 10:06:56;;;;;;;8.80;1.70;;;;;;;33.59;7.67;99981.19;5067511;28;20059;-64
2023/04/14 10:09:23;;;;;;;6.35;2.08;;;;;;;33.67;7.63;99945.16;5083155;28;20089;-65
2023/04/14 10:12:21;;;;;;;8.55;1.90;;;;;;;33.72;7.50;99977.78;5085278;28;20061;-66
2023/04/14 10:14:47;;;;;;;16.52;3.15;;;;;;;33.93;7.40;99974.22;5054202;28;20076;-65
2023/04/14 10:17:13;;;;;;;10.48;2.10;;;;;;;33.81;7.35;99984.72;5069087;28;20539;-65
2023/04/14 10:19:39;;;;;;;5.03;1.60;;;;;;;33.70;7.39;99998.75;5102772;28;20048;-64
2023/04/14 10:22:06;;;;;;;6.00;1.93;;;;;;;33.68;7.41;99978.34;5071177;28;20040;-64
2023/04/14 10:24:32;;;;;;;8.35;1.70;;;;;;;32.97;7.22;99955.84;5090395;28;20392;-65
2023/04/14 10:27:02;;;;;;;6.95;1.70;;;;;;;33.19;7.58;99992.59;5073599;28;20146;-65
2023/04/14 10:29:28;;;;;;;5.88;1.58;;;;;;;33.44;7.25;100004.72;5081728;28;20080;-64
2023/04/14 10:32:04;;;;;;;5.68;1.58;;;;;;;33.53;7.24;100006.25;5085711;28;20130;-63
2023/04/14 10:34:32;;;;;;;5.53;1.60;;;;;;;33.68;7.37;100002.63;5070489;28;20059;-64
2023/04/14 10:37:16;;;;;;;;;;;;;;;33.65;7.17;99994.94;5088483;28;20093;-65
2023/04/14 10:39:41;;;;;;;4.88;1.65;;;;;;;33.63;7.41;99995.97;5069430;28;20356;-64
2023/04/14 10:42:08;;;;;;;5.80;1.88;;;;;;;33.57;7.20;99999.44;5077317;28;20043;-64
2023/04/14 10:44:34;;;;;;;4.68;1.90;;;;;;;33.77;7.04;100005.03;5087790;28;20443;-65
2023/04/14 10:47:03;;;;;;;4.10;2.20;;;;;;;33.86;7.03;99997.66;5089986;28;20078;-65
2023/04/14 10:49:31;;;;;;;4.03;1.80;;;;;;;33.86;7.02;99993.09;5086410;28;20039;-64
2023/04/14 10:52:00;;;;;;;5.90;2.20;;;;;;;33.55;7.11;100004.16;5067835;28;20047;-66
2023/04/14 10:54:26;;;;;;;2.17;1.77;;;;;;;33.18;7.18;99966.69;5086079;28;20562;-64
2023/04/14 10:57:11;;;;;;;8.70;3.08;;;;;;;33.34;7.23;100000.66;5072554;28;20406;-67
2023/04/14 10:59:41;;;;;;;5.35;1.95;;;;;;;33.47;7.10;99985.44;5088995;28;20071;-62
2023/04/14 11:02:31;;;;;;;8.38;1.90;;;;;;;33.55;7.20;99997.97;5088288;28;20036;-65
2023/04/14 11:05:07;;;;;;;9.65;2.10;;;;;;;33.64;6.98;99980.63;5087203;28;20052;-64
2023/04/14 11:07:57;;;;;;;8.65;1.80;;;;;;;33.22;6.94;100000.31;5086251;28;20057;-65
2023/04/14 11:10:24;;;;;;;4.63;1.80;;;;;;;32.92;7.13;99999.53;5064988;28;20048;-64
2023/04/14 11:13:16;;;;;;;6.57;2.17;;;;;;;32.50;6.89;100002.06;5081988;28;20592;-65
2023/04/14 11:15:45;;;;;;;4.60;1.80;;;;;;;32.83;7.24;100007.88;5069637;28;20186;-66
2023/04/14 11:18:27;;;;;;;6.35;1.75;;;;;;;33.25;6.77;100015.25;5084585;28;20054;-66
2023/04/14 11:20:53;;;;;;;6.43;2.03;;;;;;;33.27;6.53;100016.75;5067383;28;20052;-65
2023/04/14 11:23:26;;;;;;;5.15;1.98;;;;;;;33.15;6.44;100010.16;5082129;28;20354;-64
2023/04/14 11:25:52;;;;;;;7.43;2.42;;;;;;;33.22;6.82;100004.88;5074745;28;20408;-66
2023/04/14 11:28:32;;;;;;;3.85;1.85;;;;;;;33.04;6.76;100013.34;5083574;28;20089;-63
2023/04/14 11:31:02;;;;;;;3.60;1.88;;;;;;;32.75;6.84;100017.75;5075166;28;20044;-63
2023/04/14 11:33:30;;;;;;;2.90;2.13;;;;;;;33.00;6.58;100012.03;5086686;28;20036;-64
2023/04/14 11:35:57;;;;;;;6.72;2.08;;;;;;;32.98;6.71;100006.84;5087817;28;20131;-66
2023/04/14 11:38:23;;;;;;;6.65;2.05;;;;;;;33.46;6.57;100008.03;5082979;28;20050;-66
2023/04/14 11:40:49;;;;;;;5.45;1.80;;;;;;;33.52;6.66;100006.41;5068696;28;20742;-63
2023/04/14 11:43:15;;;;;;;5.15;1.80;;;;;;;33.54;6.61;100009.78;5067820;28;20058;-65
2023/04/14 11:45:42;;;;;;;4.85;1.85;;;;;;;33.52;6.47;100006.41;5080916;28;20035;-66